Time;durP1;ratioP1;P1;durP2;ratioP2;P2;SDS_P1;SDS_P2;PMS_P1;PMS_P2;Temp;Humidity;BMP_temperature;BMP_pressure;BME280_temperature;BME280_humidity;BME280_pressure;Samples;Min_cycle;Max_cycle;Signal;HPM_P1;HPM_P2
2022/10/16 00:01:21;;;;;;;;;;;28.30;99.90;;;;;;5045071;22;20031;-57
2022/10/16 00:03:47;;;;;;;;;;;28.30;99.90;;;;;;5032639;28;19909;-58
2022/10/16 00:06:14;;;;;;;;;;;28.30;99.90;;;;;;5032507;28;19924;-58
2022/10/16 00:08:39;;;;;;;;;;;28.20;99.90;;;;;;5032784;28;19952;-58
2022/10/16 00:11:06;;;;;;;;;;;28.20;99.90;;;;;;5032896;28;20304;-57
2022/10/16 00:13:33;;;;;;;;;;;28.20;99.90;;;;;;5032383;28;19939;-58
2022/10/16 00:15:59;;;;;;;;;;;28.20;99.90;;;;;;5032319;28;19905;-59
2022/10/16 00:18:25;;;;;;;;;;;28.20;99.90;;;;;;5032354;28;19919;-60
2022/10/16 00:20:51;;;;;;;;;;;28.10;99.90;;;;;;5032230;28;19912;-56
2022/10/16 00:23:17;;;;;;;;;;;28.10;99.90;;;;;;5032286;28;20381;-57
2022/10/16 00:25:43;;;;;;;;;;;28.10;99.90;;;;;;5031941;28;19905;-57
2022/10/16 00:28:08;;;;;;;;;;;28.10;99.90;;;;;;5032243;28;19905;-58
2022/10/16 00:30:37;;;;;;;;;;;28.10;99.90;;;;;;5032149;28;19905;-57
2022/10/16 00:33:03;;;;;;;;;;;28.10;99.90;;;;;;5032083;28;20376;-58
2022/10/16 00:35:29;;;;;;;;;;;28.10;99.90;;;;;;5032155;28;19948;-59
2022/10/16 00:37:54;;;;;;;;;;;28.10;99.90;;;;;;5031833;28;19913;-58
2022/10/16 00:40:20;;;;;;;;;;;28.00;99.90;;;;;;5032001;28;20025;-58
2022/10/16 00:42:45;;;;;;;;;;;28.00;99.90;;;;;;5032028;28;19911;-59
2022/10/16 00:45:11;;;;;;;;;;;28.00;99.90;;;;;;5032147;28;19901;-58
2022/10/16 00:47:38;;;;;;;;;;;28.00;99.90;;;;;;5047395;28;19905;-59
2022/10/16 00:50:07;;;;;;;;;;;28.00;99.90;;;;;;5031833;28;20337;-57
2022/10/16 00:52:33;;;;;;;;;;;28.00;99.90;;;;;;5031610;28;19905;-58
2022/10/16 00:55:00;;;;;;;;;;;28.00;99.90;;;;;;5047046;28;19911;-58
2022/10/16 00:57:25;;;;;;;;;;;28.00;99.90;;;;;;5031736;28;20335;-58
2022/10/16 00:59:51;;;;;;;;;;;28.00;99.90;;;;;;5031984;28;19917;-58
2022/10/16 01:02:17;;;;;;;;;;;27.90;99.90;;;;;;5031623;28;20004;-59
2022/10/16 01:04:48;;;;;;;;;;;27.90;99.90;;;;;;5031755;28;20016;-56
2022/10/16 01:07:23;;;;;;;;;;;27.90;99.90;;;;;;5031638;28;19912;-56
2022/10/16 01:09:49;;;;;;;;;;;27.90;99.90;;;;;;5031475;28;19955;-58
2022/10/16 01:12:35;;;;;;;;;;;27.90;99.90;;;;;;5031727;28;19909;-59
2022/10/16 01:15:03;;;;;;;;;;;27.90;99.90;;;;;;5020330;28;19912;-57
2022/10/16 01:17:40;;;;;;;;;;;27.90;99.90;;;;;;5046752;28;20004;-58
2022/10/16 01:20:06;;;;;;;;;;;27.90;99.90;;;;;;5031458;28;19912;-58
2022/10/16 01:22:50;;;;;;;;;;;27.90;99.90;;;;;;5031400;28;19905;-59
2022/10/16 01:25:21;;;;;;;;;;;27.80;99.90;;;;;;5031598;28;20071;-59
2022/10/16 01:27:48;;;;;;;;;;;27.80;99.90;;;;;;5031309;28;19912;-57
2022/10/16 01:30:17;;;;;;;;;;;27.80;99.90;;;;;;5031499;28;19909;-58
2022/10/16 01:32:57;;;;;;;;;;;27.80;99.90;;;;;;5031432;28;20047;-57
2022/10/16 01:35:32;;;;;;;;;;;27.80;99.90;;;;;;5031270;28;20330;-58
2022/10/16 01:38:03;;;;;;;;;;;27.70;99.90;;;;;;5035466;28;19913;-58
2022/10/16 01:40:30;;;;;;;;;;;27.70;99.90;;;;;;5035353;28;19950;-58
2022/10/16 01:42:58;;;;;;;;;;;27.70;99.90;;;;;;5035473;28;19911;-58
2022/10/16 01:45:24;;;;;;;;;;;27.70;99.90;;;;;;5035294;28;19912;-59
2022/10/16 01:47:51;;;;;;;;;;;27.70;99.90;;;;;;5050672;28;19909;-58
2022/10/16 01:50:19;;;;;;;;;;;27.70;99.90;;;;;;5035016;28;19904;-59
2022/10/16 01:52:46;;;;;;;;;;;27.70;99.90;;;;;;5035374;28;19905;-58
2022/10/16 01:55:14;;;;;;;;;;;27.70;99.90;;;;;;5035255;28;19952;-58
2022/10/16 01:57:42;;;;;;;;;;;27.60;99.90;;;;;;5034881;28;20357;-59
2022/10/16 02:00:10;;;;;;;;;;;27.60;99.90;;;;;;5033966;28;19931;-59
2022/10/16 02:02:36;;;;;;;;;;;27.60;99.90;;;;;;5034822;28;19912;-59
2022/10/16 02:05:06;;;;;;;;;;;27.60;99.90;;;;;;5034847;28;19912;-58
2022/10/16 02:07:32;;;;;;;;;;;27.60;99.90;;;;;;5034750;28;19905;-58
2022/10/16 02:09:59;;;;;;;;;;;27.60;99.90;;;;;;5034832;28;19916;-58
2022/10/16 02:12:30;;;;;;;;;;;27.60;99.90;;;;;;5034795;28;19905;-57
2022/10/16 02:14:57;;;;;;;;;;;27.60;99.90;;;;;;5034647;28;19970;-58
2022/10/16 02:17:23;;;;;;;;;;;27.50;99.90;;;;;;5033129;28;20377;-58
2022/10/16 02:19:50;;;;;;;;;;;27.60;99.90;;;;;;5034563;28;19959;-57
2022/10/16 02:22:20;;;;;;;;;;;27.60;99.90;;;;;;5034678;28;20000;-57
2022/10/16 02:24:51;;;;;;;;;;;27.50;99.90;;;;;;5034498;28;19916;-57
2022/10/16 02:27:20;;;;;;;;;;;27.50;99.90;;;;;;5034614;28;20284;-59
2022/10/16 02:29:50;;;;;;;;;;;27.50;99.90;;;;;;5034728;28;19905;-59
2022/10/16 02:32:17;;;;;;;;;;;27.50;99.90;;;;;;5034543;28;20365;-58
2022/10/16 02:34:44;;;;;;;;;;;27.50;99.90;;;;;;5034383;28;19905;-58
2022/10/16 02:37:10;;;;;;;;;;;27.50;99.90;;;;;;5034074;28;19913;-59
2022/10/16 02:39:36;;;;;;;;;;;27.50;99.90;;;;;;5034125;28;19967;-58
2022/10/16 02:42:02;;;;;;;;;;;27.50;99.90;;;;;;5034078;28;20353;-59
2022/10/16 02:44:28;;;;;;;;;;;27.50;99.90;;;;;;5034190;28;19909;-58
2022/10/16 02:46:53;;;;;;;;;;;27.50;99.90;;;;;;5034342;28;19940;-58
2022/10/16 02:49:19;;;;;;;;;;;27.50;99.90;;;;;;5033986;28;19905;-58
2022/10/16 02:51:44;;;;;;;;;;;27.40;99.90;;;;;;5034153;28;19905;-58
2022/10/16 02:54:10;;;;;;;;;;;27.40;99.90;;;;;;5033979;28;19915;-59
2022/10/16 02:56:36;;;;;;;;;;;27.40;99.90;;;;;;5033965;28;19909;-59
2022/10/16 02:59:01;;;;;;;;;;;27.40;99.90;;;;;;5033793;28;19913;-57
2022/10/16 03:01:27;;;;;;;;;;;27.40;99.90;;;;;;5034247;28;20083;-58
2022/10/16 03:03:53;;;;;;;;;;;27.40;99.90;;;;;;5033839;28;20399;-57
2022/10/16 03:06:18;;;;;;;;;;;27.40;99.90;;;;;;5034097;28;19905;-58
2022/10/16 03:08:44;;;;;;;;;;;27.40;99.90;;;;;;5033651;28;20000;-57
2022/10/16 03:11:09;;;;;;;;;;;27.30;99.90;;;;;;5033593;28;19910;-57
2022/10/16 03:13:35;;;;;;;;;;;27.30;99.90;;;;;;5033581;28;20401;-58
2022/10/16 03:16:00;;;;;;;;;;;27.30;99.90;;;;;;5033521;28;19909;-59
2022/10/16 03:18:26;;;;;;;;;;;27.30;99.90;;;;;;5033474;28;20055;-58
2022/10/16 03:20:52;;;;;;;;;;;27.40;99.90;;;;;;5033465;28;19905;-58
2022/10/16 03:23:17;;;;;;;;;;;27.30;99.90;;;;;;5033599;28;20010;-58
2022/10/16 03:25:43;;;;;;;;;;;27.30;99.90;;;;;;5033450;28;20280;-57
2022/10/16 03:28:09;;;;;;;;;;;27.30;99.90;;;;;;5033310;28;19912;-59
2022/10/16 03:30:34;;;;;;;;;;;27.30;99.90;;;;;;5033329;28;20389;-59
2022/10/16 03:33:00;;;;;;;;;;;27.30;99.90;;;;;;5033328;28;19992;-60
2022/10/16 03:35:25;;;;;;;;;;;27.30;99.90;;;;;;5033505;28;19986;-59
2022/10/16 03:37:51;;;;;;;;;;;27.30;99.90;;;;;;5033317;28;19919;-58
2022/10/16 03:40:17;;;;;;;;;;;27.20;99.90;;;;;;5033276;28;19965;-59
2022/10/16 03:42:43;;;;;;;;;;;27.30;99.90;;;;;;5032959;28;19912;-59
2022/10/16 03:45:09;;;;;;;;;;;27.20;99.90;;;;;;5031543;28;20003;-59
2022/10/16 03:47:35;;;;;;;;;;;27.20;99.90;;;;;;5032996;28;19999;-59
2022/10/16 03:50:00;;;;;;;;;;;27.20;99.90;;;;;;5032808;28;19948;-59
2022/10/16 03:52:26;;;;;;;;;;;27.20;99.90;;;;;;5033028;28;19912;-59
2022/10/16 03:54:52;;;;;;;;;;;27.20;99.90;;;;;;5033093;28;20384;-60
2022/10/16 03:57:18;;;;;;;;;;;27.20;99.90;;;;;;5032946;28;19994;-58
2022/10/16 03:59:44;;;;;;;;;;;27.20;99.90;;;;;;5043688;22;20322;-50
2022/10/16 04:02:09;;;;;;;;;;;27.20;99.90;;;;;;5032925;28;20011;-50
2022/10/16 04:04:35;;;;;;;;;;;27.10;99.90;;;;;;5032367;28;19912;-50
2022/10/16 04:07:01;;;;;;;;;;;27.20;99.90;;;;;;5032465;28;19944;-50
2022/10/16 04:09:27;;;;;;;;;;;27.10;99.90;;;;;;5032282;28;19905;-50
2022/10/16 04:11:53;;;;;;;;;;;27.10;99.90;;;;;;5032636;28;19905;-50
2022/10/16 04:14:19;;;;;;;;;;;27.10;99.90;;;;;;5032567;28;19947;-51
2022/10/16 04:16:44;;;;;;;;;;;27.10;99.90;;;;;;5032135;28;19936;-50
2022/10/16 04:19:10;;;;;;;;;;;27.10;99.90;;;;;;5032056;28;20281;-50
2022/10/16 04:21:36;;;;;;;;;;;27.10;99.90;;;;;;5032123;28;19905;-50
2022/10/16 04:24:02;;;;;;;;;;;27.10;99.90;;;;;;5031992;28;19905;-50
2022/10/16 04:26:28;;;;;;;;;;;27.00;99.90;;;;;;5032032;28;19913;-50
2022/10/16 04:28:53;;;;;;;;;;;27.00;99.90;;;;;;5032388;28;19937;-51
2022/10/16 04:31:19;;;;;;;;;;;27.00;99.90;;;;;;5032239;28;19905;-51
2022/10/16 04:33:45;;;;;;;;;;;27.00;99.90;;;;;;5047527;28;19905;-50
2022/10/16 04:36:11;;;;;;;;;;;27.00;99.90;;;;;;5031987;28;19905;-51
2022/10/16 04:38:37;;;;;;;;;;;27.00;99.90;;;;;;5031754;28;19913;-50
2022/10/16 04:41:03;;;;;;;;;;;27.00;99.90;;;;;;5031800;28;19905;-51
2022/10/16 04:43:29;;;;;;;;;;;27.00;99.90;;;;;;5031877;28;19917;-51
2022/10/16 04:45:54;;;;;;;;;;;27.00;99.90;;;;;;5031945;28;19991;-50
2022/10/16 04:48:20;;;;;;;;;;;26.90;99.90;;;;;;5031933;28;19928;-50
2022/10/16 04:50:46;;;;;;;;;;;26.90;99.90;;;;;;5031673;28;19905;-51
2022/10/16 04:53:12;;;;;;;;;;;26.90;99.90;;;;;;5031652;28;20272;-50
2022/10/16 04:55:38;;;;;;;;;;;26.90;99.90;;;;;;5031601;28;19923;-51
2022/10/16 04:58:03;;;;;;;;;;;26.90;99.90;;;;;;5031650;28;20305;-51
2022/10/16 05:00:29;;;;;;;;;;;26.90;99.90;;;;;;5031308;28;20004;-50
2022/10/16 05:02:55;;;;;;;;;;;26.90;99.90;;;;;;5031743;28;19940;-50
2022/10/16 05:05:20;;;;;;;;;;;26.90;99.90;;;;;;5047024;28;19928;-50
2022/10/16 05:07:46;;;;;;;;;;;26.80;99.90;;;;;;5031410;28;19909;-51
2022/10/16 05:10:12;;;;;;;;;;;26.80;99.90;;;;;;5030798;28;19905;-51
2022/10/16 05:12:38;;;;;;;;;;;26.80;99.90;;;;;;5031078;28;19912;-51
2022/10/16 05:15:03;;;;;;;;;;;26.80;99.90;;;;;;5030115;28;19909;-51
2022/10/16 05:17:29;;;;;;;;;;;26.80;99.90;;;;;;5031056;28;19916;-51
2022/10/16 05:19:55;;;;;;;;;;;26.80;99.90;;;;;;5031529;28;19909;-51
2022/10/16 05:22:20;;;;;;;;;;;26.80;99.90;;;;;;5031360;28;19912;-51
2022/10/16 05:24:46;;;;;;;;;;;26.80;99.90;;;;;;5031115;28;20416;-51
2022/10/16 05:27:18;;;;;;;;;;;26.70;99.90;;;;;;5031219;28;19906;-51
2022/10/16 05:29:47;;;;;;;;;;;26.70;99.90;;;;;;5031196;28;19909;-51
2022/10/16 05:32:13;;;;;;;;;;;26.70;99.90;;;;;;5031175;28;19905;-51
2022/10/16 05:34:39;;;;;;;;;;;26.70;99.90;;;;;;5031211;28;19912;-50
2022/10/16 05:37:05;;;;;;;;;;;26.70;99.90;;;;;;5031197;28;19905;-50
2022/10/16 05:39:30;;;;;;;;;;;26.70;99.90;;;;;;5031210;28;20545;-51
2022/10/16 05:41:56;;;;;;;;;;;26.60;99.90;;;;;;5031295;28;19905;-51
2022/10/16 05:44:21;;;;;;;;;;;26.60;99.90;;;;;;5031392;28;20272;-51
2022/10/16 05:46:47;;;;;;;;;;;26.70;99.90;;;;;;5031168;28;20353;-50
2022/10/16 05:49:13;;;;;;;;;;;26.60;99.90;;;;;;5029887;28;19909;-51
2022/10/16 05:51:38;;;;;;;;;;;26.60;99.90;;;;;;5031098;28;19905;-51
2022/10/16 05:54:04;;;;;;;;;;;26.60;99.90;;;;;;5031001;28;19912;-51
2022/10/16 05:56:29;;;;;;;;;;;26.60;99.90;;;;;;5031207;28;19944;-50
2022/10/16 05:58:55;;;;;;;;;;;26.60;99.90;;;;;;5030938;28;20268;-51
2022/10/16 06:01:23;;;;;;;;;;;26.60;99.90;;;;;;5030725;28;19917;-50
2022/10/16 06:03:52;;;;;;;;;;;26.60;99.90;;;;;;5030858;28;19914;-51
2022/10/16 06:06:21;;;;;;;;;;;26.50;99.90;;;;;;5030739;28;19943;-51
2022/10/16 06:08:47;;;;;;;;;;;26.50;99.90;;;;;;5030890;28;19912;-50
2022/10/16 06:11:18;;;;;;;;;;;26.60;99.90;;;;;;5030698;28;19968;-50
2022/10/16 06:13:45;;;;;;;;;;;26.50;99.90;;;;;;5030926;28;19909;-50
2022/10/16 06:16:12;;;;;;;;;;;26.50;99.90;;;;;;5030869;28;19948;-51
2022/10/16 06:18:37;;;;;;;;;;;26.50;99.90;;;;;;5030649;28;19913;-51
2022/10/16 06:21:10;;;;;;;;;;;26.50;99.90;;;;;;5030870;28;19905;-52
2022/10/16 06:23:36;;;;;;;;;;;26.50;99.90;;;;;;5034013;28;19909;-51
2022/10/16 06:26:08;;;;;;;;;;;26.50;99.90;;;;;;5034545;28;20039;-51
2022/10/16 06:28:34;;;;;;;;;;;26.50;99.90;;;;;;5034212;28;19931;-51
2022/10/16 06:31:00;;;;;;;;;;;26.50;99.90;;;;;;5034481;28;19905;-50
2022/10/16 06:33:26;;;;;;;;;;;26.50;99.90;;;;;;5034538;28;19912;-51
2022/10/16 06:35:52;;;;;;;;;;;26.50;99.90;;;;;;5034166;28;19905;-51
2022/10/16 06:38:17;;;;;;;;;;;26.40;99.90;;;;;;5034174;28;19913;-50
2022/10/16 06:40:43;;;;;;;;;;;26.40;99.90;;;;;;5049316;28;19913;-51
2022/10/16 06:43:09;;;;;;;;;;;26.40;99.90;;;;;;5034112;28;20389;-50
2022/10/16 06:45:34;;;;;;;;;;;26.40;99.90;;;;;;5034004;28;19905;-50
2022/10/16 06:48:00;;;;;;;;;;;26.40;99.90;;;;;;5034191;28;19905;-51
2022/10/16 06:50:26;;;;;;;;;;;26.40;99.90;;;;;;5034242;28;20333;-50
2022/10/16 06:52:51;;;;;;;;;;;26.40;99.90;;;;;;5033829;28;19951;-50
2022/10/16 06:55:17;;;;;;;;;;;26.40;99.90;;;;;;5033838;28;19951;-49
2022/10/16 06:57:43;;;;;;;;;;;26.40;99.90;;;;;;5033713;28;19932;-50
2022/10/16 07:00:09;;;;;;;;;;;26.40;99.90;;;;;;5033547;28;19967;-50
2022/10/16 07:02:34;;;;;;;;;;;26.40;99.90;;;;;;5033665;28;19939;-50
2022/10/16 07:05:00;;;;;;;;;;;26.40;99.90;;;;;;5033533;28;19912;-50
2022/10/16 07:07:26;;;;;;;;;;;26.40;99.90;;;;;;5033507;28;19901;-49
2022/10/16 07:09:52;;;;;;;;;;;26.40;99.90;;;;;;5033648;28;19909;-50
2022/10/16 07:12:17;;;;;;;;;;;26.40;99.90;;;;;;5033502;28;20364;-50
2022/10/16 07:14:43;;;;;;;;;;;26.40;99.90;;;;;;5033528;28;19905;-50
2022/10/16 07:17:09;;;;;;;;;;;26.40;99.90;;;;;;5033430;28;19905;-50
2022/10/16 07:19:34;;;;;;;;;;;26.40;99.90;;;;;;5033383;28;19905;-50
2022/10/16 07:22:00;;;;;;;;;;;26.40;99.90;;;;;;5033723;28;20280;-50
2022/10/16 07:24:26;;;;;;;;;;;26.40;99.90;;;;;;5033380;28;19905;-50
2022/10/16 07:26:51;;;;;;;;;;;26.40;99.90;;;;;;5033264;28;20264;-50
2022/10/16 07:29:19;;;;;;;;;;;26.40;99.90;;;;;;5033216;28;20004;-50
2022/10/16 07:31:44;;;;;;;;;;;26.40;99.90;;;;;;5033282;28;19987;-50
2022/10/16 07:34:11;;;;;;;;;;;26.40;99.90;;;;;;5032272;28;19948;-51
2022/10/16 07:36:37;;;;;;;;;;;26.40;99.90;;;;;;5033226;28;19905;-50
2022/10/16 07:39:03;;;;;;;;;;;26.40;99.90;;;;;;5033111;28;19913;-50
2022/10/16 07:41:28;;;;;;;;;;;26.40;99.90;;;;;;5032902;28;19952;-50
2022/10/16 07:43:54;;;;;;;;;;;26.40;99.90;;;;;;5032845;28;19916;-49
2022/10/16 07:46:21;;;;;;;;;;;26.40;99.90;;;;;;5033019;28;19905;-50
2022/10/16 07:48:47;;;;;;;;;;;26.40;99.90;;;;;;5032785;28;19905;-49
2022/10/16 07:51:17;;;;;;;;;;;26.40;99.90;;;;;;5032650;28;20273;-49
2022/10/16 07:53:43;;;;;;;;;;;26.40;99.90;;;;;;5031167;28;20368;-49
2022/10/16 07:56:09;;;;;;;;;;;26.40;99.90;;;;;;5032396;28;19905;-49
2022/10/16 07:58:38;;;;;;;;;;;26.40;99.90;;;;;;5030910;28;19913;-49
2022/10/16 08:01:05;;;;;;;;;;;26.40;99.90;;;;;;5031767;28;20286;-50
2022/10/16 08:03:30;;;;;;;;;;;26.40;99.90;;;;;;5031632;28;20423;-50
2022/10/16 08:05:56;;;;;;;;;;;26.40;99.90;;;;;;5031286;28;19909;-49
2022/10/16 08:08:22;;;;;;;;;;;26.40;99.90;;;;;;5031353;28;19905;-50
2022/10/16 08:10:48;;;;;;;;;;;26.40;99.90;;;;;;5031319;28;19912;-50
2022/10/16 08:13:14;;;;;;;;;;;26.40;99.90;;;;;;5031519;28;19948;-50
2022/10/16 08:15:41;;;;;;;;;;;26.40;99.90;;;;;;5031359;28;20011;-50
2022/10/16 08:18:06;;;;;;;;;;;26.40;99.90;;;;;;5031245;28;19913;-49
2022/10/16 08:20:33;;;;;;;;;;;26.30;99.90;;;;;;5031481;28;20341;-50
2022/10/16 08:22:59;;;;;;;;;;;26.40;99.90;;;;;;5031193;28;19905;-49
2022/10/16 08:25:24;;;;;;;;;;;26.40;99.90;;;;;;5031174;28;19905;-49
2022/10/16 08:27:50;;;;;;;;;;;26.30;99.90;;;;;;5031084;28;19905;-49
2022/10/16 08:30:17;;;;;;;;;;;26.30;99.90;;;;;;5030958;28;19955;-50
2022/10/16 08:32:42;;;;;;;;;;;26.30;99.90;;;;;;5031186;28;20004;-49
2022/10/16 08:35:09;;;;;;;;;;;26.40;99.90;;;;;;5031045;28;19905;-49
2022/10/16 08:37:35;;;;;;;;;;;26.30;99.90;;;;;;5031540;28;19919;-49
2022/10/16 08:40:01;;;;;;;;;;;26.30;99.90;;;;;;5031057;28;20002;-50
2022/10/16 08:42:36;;;;;;;;;;;26.30;99.90;;;;;;5030804;28;20389;-50
2022/10/16 08:45:01;;;;;;;;;;;26.30;99.90;;;;;;5030686;28;19905;-49
2022/10/16 08:47:47;;;;;;;;;;;26.30;99.90;;;;;;5030906;28;19908;-50
2022/10/16 08:50:24;;;;;;;;;;;26.30;99.90;;;;;;5019571;28;19932;-49
2022/10/16 08:52:50;;;;;;;;;;;26.30;99.90;;;;;;5030792;28;19952;-49
2022/10/16 08:55:21;;;;;;;;;;;26.30;99.90;;;;;;5030747;28;19990;-49
2022/10/16 08:57:47;;;;;;;;;;;26.30;99.90;;;;;;5030726;28;20252;-50
2022/10/16 09:00:13;;;;;;;;;;;26.30;99.90;;;;;;5002070;28;997177;-50
2022/10/16 09:02:43;;;;;;;;;;;26.30;99.90;;;;;;5040837;28;20330;-50
2022/10/16 09:05:27;;;;;;;;;;;26.30;99.90;;;;;;5031212;28;19905;-51
2022/10/16 09:07:56;;;;;;;;;;;26.30;99.90;;;;;;5031328;28;19908;-51
2022/10/16 09:10:21;;;;;;;;;;;26.30;99.90;;;;;;5031261;28;19959;-51
2022/10/16 09:12:47;;;;;;;;;;;26.30;99.90;;;;;;5031132;28;19913;-50
2022/10/16 09:15:27;;;;;;;;;;;26.30;99.90;;;;;;5031283;28;20344;-50
2022/10/16 09:17:56;;;;;;;;;;;26.30;99.90;;;;;;5031199;28;20011;-51
2022/10/16 09:20:25;;;;;;;;;;;26.30;99.90;;;;;;5046763;28;19911;-51
2022/10/16 09:23:11;;;;;;;;;;;26.30;99.90;;;;;;5031184;28;19963;-51
2022/10/16 09:25:38;;;;;;;;;;;26.30;99.90;;;;;;5027283;28;19905;-50
2022/10/16 09:28:04;;;;;;;;;;;26.30;99.90;;;;;;5031328;28;19912;-50
2022/10/16 09:30:29;;;;;;;;;;;26.30;99.90;;;;;;5031302;28;19909;-50
2022/10/16 09:32:57;;;;;;;;;;;26.30;99.90;;;;;;5031150;28;19913;-50
2022/10/16 09:35:27;;;;;;;;;;;26.30;99.90;;;;;;5031133;28;20345;-51
2022/10/16 09:37:54;;;;;;;;;;;26.40;99.90;;;;;;5029637;28;19917;-51
2022/10/16 09:40:34;;;;;;;;;;;26.40;99.90;;;;;;5031034;28;19957;-51
2022/10/16 09:43:18;;;;;;;;;;;26.40;99.90;;;;;;5031171;28;20674;-51
2022/10/16 09:45:53;;;;;;;;;;;26.40;99.90;;;;;;5031051;28;19970;-51
2022/10/16 09:48:19;;;;;;;;;;;26.40;99.90;;;;;;5031155;28;19905;-51
2022/10/16 09:50:55;;;;;;;;;;;26.50;99.90;;;;;;5030932;28;19912;-51
2022/10/16 09:53:22;;;;;;;;;;;26.50;99.90;;;;;;5030858;28;19916;-51
2022/10/16 09:55:52;;;;;;;;;;;26.50;99.90;;;;;;5030940;28;19912;-51
2022/10/16 09:58:17;;;;;;;;;;;26.50;99.90;;;;;;5033798;28;20277;-51
2022/10/16 10:00:53;;;;;;;;;;;26.50;99.90;;;;;;5034725;28;20000;-51
2022/10/16 10:03:31;;;;;;;;;;;26.60;99.90;;;;;;5034722;28;19916;-51
2022/10/16 10:05:56;;;;;;;;;;;26.60;99.90;;;;;;5034853;28;20403;-51
2022/10/16 10:08:22;;;;;;;;;;;26.60;99.90;;;;;;5035000;28;19944;-51
2022/10/16 10:10:48;;;;;;;;;;;26.60;99.90;;;;;;5033488;28;19928;-51
2022/10/16 10:13:20;;;;;;;;;;;26.60;99.90;;;;;;5034692;28;19909;-51
2022/10/16 10:15:46;;;;;;;;;;;26.60;99.90;;;;;;5034613;28;19991;-52
2022/10/16 10:18:16;;;;;;;;;;;26.60;99.90;;;;;;5034773;28;20009;-51
2022/10/16 10:20:42;;;;;;;;;;;26.70;99.90;;;;;;5034762;28;19959;-51
2022/10/16 10:23:33;;;;;;;;;;;26.70;99.90;;;;;;5034809;28;19905;-50
2022/10/16 10:26:05;;;;;;;;;;;26.70;99.90;;;;;;5033138;28;20372;-51
2022/10/16 10:28:49;;;;;;;;;;;26.70;99.90;;;;;;5034414;28;19909;-50
2022/10/16 10:31:20;;;;;;;;;;;26.70;99.90;;;;;;5034507;28;20348;-51
2022/10/16 10:34:08;;;;;;;;;;;26.70;99.90;;;;;;5034660;28;19905;-51
2022/10/16 10:36:38;;;;;;;;;;;26.70;99.90;;;;;;5034038;28;19905;-51
2022/10/16 10:39:24;;;;;;;;;;;26.70;99.90;;;;;;5034257;28;19924;-51
2022/10/16 10:41:53;;;;;;;;;;;26.80;99.90;;;;;;5034049;28;19916;-51
2022/10/16 10:44:21;;;;;;;;;;;26.80;99.90;;;;;;5034188;28;19912;-51
2022/10/16 10:46:47;;;;;;;;;;;26.80;99.90;;;;;;5034189;28;19951;-51
2022/10/16 10:49:31;;;;;;;;;;;26.80;99.90;;;;;;5034283;28;19908;-50
2022/10/16 10:52:13;;;;;;;;;;;26.70;99.90;;;;;;5034006;28;19905;-50
2022/10/16 10:54:57;;;;;;;;;;;26.80;99.90;;;;;;5034044;28;19905;-51
2022/10/16 10:57:33;;;;;;;;;;;26.80;99.90;;;;;;5033698;28;19909;-51
2022/10/16 11:00:17;;;;;;;;;;;26.80;99.90;;;;;;5033494;28;19923;-50
2022/10/16 11:02:46;;;;;;;;;;;26.80;99.90;;;;;;5033918;28;19905;-50
2022/10/16 11:05:17;;;;;;;;;;;26.70;99.90;;;;;;5033884;28;19959;-50
2022/10/16 11:07:47;;;;;;;;;;;26.70;99.90;;;;;;5033584;28;19905;-49
2022/10/16 11:10:14;;;;;;;;;;;26.70;99.90;;;;;;5032755;28;20299;-50
2022/10/16 11:12:44;;;;;;;;;;;26.80;99.90;;;;;;5033859;28;20364;-50
2022/10/16 11:15:18;;;;;;;;;;;26.80;99.90;;;;;;5033660;28;19959;-50
2022/10/16 11:17:44;;;;;;;;;;;26.70;99.90;;;;;;5033792;28;19913;-50
2022/10/16 11:20:27;;;;;;;;;;;26.80;99.90;;;;;;5033498;28;19987;-50
2022/10/16 11:23:07;;;;;;;;;;;26.80;99.90;;;;;;5033475;28;19916;-50
2022/10/16 11:25:33;;;;;;;;;;;26.80;99.90;;;;;;5033447;28;19966;-50
2022/10/16 11:28:02;;;;;;;;;;;26.80;99.90;;;;;;5033343;28;19912;-50
2022/10/16 11:30:33;;;;;;;;;;;26.90;99.90;;;;;;5033400;28;19911;-50
2022/10/16 11:33:08;;;;;;;;;;;26.90;99.90;;;;;;5033421;28;20352;-50
2022/10/16 11:35:43;;;;;;;;;;;26.90;99.90;;;;;;5033201;28;20345;-50
2022/10/16 11:38:20;;;;;;;;;;;27.00;99.90;;;;;;5033000;28;20361;-51
2022/10/16 11:40:47;;;;;;;;;;;27.00;99.90;;;;;;5033293;28;19905;-50
2022/10/16 11:43:15;;;;;;;;;;;27.10;99.90;;;;;;5033167;28;19936;-50
2022/10/16 11:45:46;;;;;;;;;;;27.10;99.90;;;;;;5033059;28;19911;-50
2022/10/16 11:48:14;;;;;;;;;;;27.20;99.90;;;;;;5033122;28;20367;-50
2022/10/16 11:50:40;;;;;;;;;;;27.20;99.90;;;;;;5033012;28;20333;-50
2022/10/16 11:53:21;;;;;;;;;;;27.20;99.90;;;;;;5033039;28;19912;-50
2022/10/16 11:55:46;;;;;;;;;;;27.30;99.90;;;;;;5033024;28;19908;-50
2022/10/16 11:58:15;;;;;;;;;;;27.30;99.90;;;;;;5032931;28;19913;-50
2022/10/16 12:00:48;;;;;;;;;;;27.40;99.90;;;;;;5032587;28;19916;-50
2022/10/16 12:03:19;;;;;;;;;;;27.40;99.90;;;;;;5033123;28;19909;-49
2022/10/16 12:06:04;;;;;;;;;;;27.40;99.90;;;;;;5032588;28;20000;-50
2022/10/16 12:08:30;;;;;;;;;;;27.50;99.90;;;;;;5032630;28;20360;-50
2022/10/16 12:11:05;;;;;;;;;;;27.50;99.90;;;;;;5032348;28;19905;-49
2022/10/16 12:13:31;;;;;;;;;;;27.50;99.90;;;;;;5032194;28;19905;-50
2022/10/16 12:16:12;;;;;;;;;;;27.50;99.90;;;;;;5032241;28;19905;-50
2022/10/16 12:18:38;;;;;;;;;;;27.50;99.90;;;;;;5032184;28;19982;-50
2022/10/16 12:21:06;;;;;;;;;;;27.50;99.90;;;;;;5031767;28;19912;-50
2022/10/16 12:23:32;;;;;;;;;;;27.50;99.90;;;;;;5031996;28;19955;-50
2022/10/16 12:25:59;;;;;;;;;;;27.50;99.90;;;;;;5032313;28;19905;-50
2022/10/16 12:28:28;;;;;;;;;;;27.50;99.90;;;;;;5032156;28;20343;-50
2022/10/16 12:30:56;;;;;;;;;;;27.50;99.90;;;;;;5031825;28;19912;-50
2022/10/16 12:33:23;;;;;;;;;;;27.50;99.90;;;;;;5031848;28;20364;-50
2022/10/16 12:35:49;;;;;;;;;;;27.60;99.90;;;;;;5031973;28;19905;-50
2022/10/16 12:38:14;;;;;;;;;;;27.60;99.90;;;;;;5032080;28;20241;-50
2022/10/16 12:40:40;;;;;;;;;;;27.60;99.90;;;;;;5031931;28;19912;-50
2022/10/16 12:43:23;;;;;;;;;;;27.60;99.90;;;;;;5031787;28;19905;-49
2022/10/16 12:45:58;;;;;;;;;;;27.60;99.90;;;;;;5032318;28;19912;-51
2022/10/16 12:48:24;;;;;;;;;;;27.60;99.90;;;;;;5030565;28;19905;-50
2022/10/16 12:50:50;;;;;;;;;;;27.60;99.90;;;;;;5047299;28;19909;-51
2022/10/16 12:53:18;;;;;;;;;;;27.60;99.90;;;;;;5032029;28;19912;-50
2022/10/16 12:55:59;;;;;;;;;;;27.60;99.90;;;;;;5031693;28;19909;-50
2022/10/16 12:58:35;;;;;;;;;;;27.70;99.90;;;;;;5031532;28;19912;-50
2022/10/16 13:01:07;;;;;;;;;;;27.70;99.90;;;;;;5031489;28;19924;-50
2022/10/16 13:03:32;;;;;;;;;;;27.70;99.90;;;;;;5031554;28;19909;-50
2022/10/16 13:06:24;;;;;;;;;;;27.70;99.90;;;;;;5046691;28;19912;-50
2022/10/16 13:09:02;;;;;;;;;;;27.80;99.90;;;;;;5023324;28;20357;-50
2022/10/16 13:11:33;;;;;;;;;;;27.80;99.90;;;;;;5031278;28;19906;-50
2022/10/16 13:14:02;;;;;;;;;;;27.80;99.90;;;;;;5031348;28;19912;-50
2022/10/16 13:16:27;;;;;;;;;;;27.80;99.90;;;;;;5031222;28;20275;-50
2022/10/16 13:19:00;;;;;;;;;;;27.90;99.90;;;;;;5031155;28;19920;-50
2022/10/16 13:21:34;;;;;;;;;;;27.90;99.90;;;;;;5031361;28;20280;-50
2022/10/16 13:24:02;;;;;;;;;;;27.90;99.90;;;;;;5031411;28;19901;-50
2022/10/16 13:26:37;;;;;;;;;;;27.90;99.90;;;;;;5031282;28;20001;-50
2022/10/16 13:29:03;;;;;;;;;;;27.90;99.90;;;;;;5031362;28;19927;-51
2022/10/16 13:31:29;;;;;;;;;;;28.00;99.90;;;;;;5031143;28;20344;-50
2022/10/16 13:33:58;;;;;;;;;;;28.00;99.90;;;;;;5035268;28;19906;-50
2022/10/16 13:36:25;;;;;;;;;;;28.00;99.90;;;;;;5035439;28;19916;-50
2022/10/16 13:39:06;;;;;;;;;;;28.10;99.90;;;;;;5035453;28;20007;-50
2022/10/16 13:41:31;;;;;;;;;;;28.10;99.90;;;;;;5035273;28;19904;-50
2022/10/16 13:43:57;;;;;;;;;;;28.20;99.90;;;;;;5035346;28;20383;-50
2022/10/16 13:46:23;;;;;;;;;;;28.20;99.90;;;;;;5036202;28;19912;-51
2022/10/16 13:48:58;;;;;;;;;;;28.20;99.90;;;;;;5035499;28;20384;-50
2022/10/16 13:51:24;;;;;;;;;;;28.30;99.90;;;;;;5050518;28;19996;-50
2022/10/16 13:53:50;;;;;;;;;;;28.30;99.90;;;;;;5035408;28;20233;-50
2022/10/16 13:56:17;;;;;;;;;;;28.30;99.90;;;;;;5035400;28;19941;-49
2022/10/16 13:58:43;;;;;;;;;;;28.30;99.90;;;;;;5034868;28;19913;-50
2022/10/16 14:01:20;;;;;;;;;;;28.30;99.90;;;;;;5035130;28;20394;-50
2022/10/16 14:03:46;;;;;;;;;;;28.40;99.90;;;;;;5034985;28;19905;-50
2022/10/16 14:06:21;;;;;;;;;;;28.40;99.90;;;;;;5034880;28;19913;-50
2022/10/16 14:08:58;;;;;;;;;;;28.50;99.90;;;;;;5035102;28;19905;-51
2022/10/16 14:11:24;;;;;;;;;;;28.50;99.90;;;;;;5034943;28;20261;-50
2022/10/16 14:13:50;;;;;;;;;;;28.50;99.90;;;;;;5035004;28;19908;-50
2022/10/16 14:16:18;;;;;;;;;;;28.50;99.90;;;;;;5034605;28;19909;-51
2022/10/16 14:18:46;;;;;;;;;;;28.50;99.90;;;;;;5034525;28;20019;-50
2022/10/16 14:21:15;;;;;;;;;;;28.50;99.90;;;;;;5034740;28;19928;-50
2022/10/16 14:23:41;;;;;;;;;;;28.60;99.90;;;;;;5034616;28;20089;-50